Hauptseite
METAR-TAF:

METAR-TAF

Flughäfen :

Flughafen Teheran-Mehrabad

Teheran, Iran

Breite: 35-41N, Länge: 051-21E, Höhe: 1204 m

Beobachtung

Neuester Wetterbericht von vor 18 Minuten, um 08:00 UTC
Wind 6 kt aus Süd
Temperatur 36°C
Luftfeuchtigkeit 12%
Luftdruck 1009 hPa
Sichtweite 10 km oder mehr
keine Wolken unter 1500 m und keine Kumulonimbus oder Gewitterwolken

METAR: OIII 180800Z 17006KT CAVOK 36/02 Q1009 A2981 NOSIG

Zeit: 12:48 (08:18 UTC)

Prognose

Neuester Wetterbericht von vor 3 Stunden und 8 Minuten, um 05:10 UTC
Gültige Prognose vom 18 um 06 UTC bis 19 um 12 UTC
Wind 10 kt aus Südost
Sichtweite: 8000 m
Leicht bewölkt in der Höhe von 4000 ft
Aufgelockert bewölkt in der Höhe von 10000 ft
Zeitweise
vom 18 um 10 UTC bis 18 um 17 UTC
Wind 19 kt aus Südost

TAF: OIII 180510Z 1806/1912 13005MPS 8000 FEW040 SCT100 TEMPO 1810/1817 13010MPS

Wetterbeobachtungen und Prognosen von mehr als 4000 Flughäfen (METAR und TAF Bericht).

Die verfügbaren Stationen werden durch gelbe und rote Markierungen auf der Karte dargestellt.

Führen Sie die Maus auf sie, um den Namen der Station zu sehen.

Darauf klicken, um die Beobachtung von Wetterbeobachtungen und Prognosen zu sehen.

Um die Karte zu ändern : klicken Sie auf den grünen Tasten mit einem schwarzen Kreuz Zum Vergrößern, auf den grünen Button mit einem Gedankenstrich zu verkleinern, oder auf die grünen Pfeile für benachbarte Karten.


METAR-TAF: